sensor_id;sensor_type;location;lat;lon;timestamp;pressure;altitude;pressure_sealevel;temperature;humidity
20612;BME280;10465;42.686;23.364;2024-02-14T00:00:37;94693.59;;;8.40;79.47
20612;BME280;10465;42.686;23.364;2024-02-14T00:03:03;94694.88;;;8.43;79.37
20612;BME280;10465;42.686;23.364;2024-02-14T00:05:28;94688.78;;;8.42;79.60
20612;BME280;10465;42.686;23.364;2024-02-14T00:07:54;94676.00;;;8.36;79.07
20612;BME280;10465;42.686;23.364;2024-02-14T00:10:19;94702.38;;;8.63;79.22
20612;BME280;10465;42.686;23.364;2024-02-14T00:12:45;94711.34;;;8.62;78.61
20612;BME280;10465;42.686;23.364;2024-02-14T00:15:12;94712.31;;;8.66;78.53
20612;BME280;10465;42.686;23.364;2024-02-14T00:17:37;94702.19;;;8.60;78.84
20612;BME280;10465;42.686;23.364;2024-02-14T00:20:03;94713.00;;;8.72;78.44
20612;BME280;10465;42.686;23.364;2024-02-14T00:22:29;94720.16;;;8.72;78.06
20612;BME280;10465;42.686;23.364;2024-02-14T00:24:55;94708.44;;;8.64;77.90
20612;BME280;10465;42.686;23.364;2024-02-14T00:27:20;94703.66;;;8.52;78.37
20612;BME280;10465;42.686;23.364;2024-02-14T00:29:46;94719.56;;;8.61;78.37
20612;BME280;10465;42.686;23.364;2024-02-14T00:32:14;94705.00;;;8.50;78.66
20612;BME280;10465;42.686;23.364;2024-02-14T00:34:40;94718.59;;;8.57;79.00
20612;BME280;10465;42.686;23.364;2024-02-14T00:37:06;94713.91;;;8.54;78.49
20612;BME280;10465;42.686;23.364;2024-02-14T00:39:31;94723.97;;;8.52;78.74
20612;BME280;10465;42.686;23.364;2024-02-14T00:41:56;94718.19;;;8.36;78.93
20612;BME280;10465;42.686;23.364;2024-02-14T00:44:22;94720.75;;;8.41;79.22
20612;BME280;10465;42.686;23.364;2024-02-14T00:46:47;94681.09;;;8.18;79.11
20612;BME280;10465;42.686;23.364;2024-02-14T00:49:15;94723.78;;;8.48;79.51
20612;BME280;10465;42.686;23.364;2024-02-14T00:51:41;94711.75;;;8.42;79.46
20612;BME280;10465;42.686;23.364;2024-02-14T00:54:06;94724.75;;;8.52;79.12
20612;BME280;10465;42.686;23.364;2024-02-14T00:56:33;94723.88;;;8.57;79.01
20612;BME280;10465;42.686;23.364;2024-02-14T00:58:59;94726.63;;;8.52;79.08
20612;BME280;10465;42.686;23.364;2024-02-14T01:01:24;94729.53;;;8.50;78.88
20612;BME280;10465;42.686;23.364;2024-02-14T01:03:49;94726.69;;;8.47;78.88
20612;BME280;10465;42.686;23.364;2024-02-14T01:06:15;94720.16;;;8.44;78.87
20612;BME280;10465;42.686;23.364;2024-02-14T01:08:44;94722.13;;;8.52;78.89
20612;BME280;10465;42.686;23.364;2024-02-14T01:11:09;94725.13;;;8.46;78.98
20612;BME280;10465;42.686;23.364;2024-02-14T01:13:35;94731.13;;;8.51;78.44
20612;BME280;10465;42.686;23.364;2024-02-14T01:16:00;94710.19;;;8.41;78.64
20612;BME280;10465;42.686;23.364;2024-02-14T01:18:26;94691.25;;;8.39;78.11
20612;BME280;10465;42.686;23.364;2024-02-14T01:20:51;94730.44;;;8.59;77.79
20612;BME280;10465;42.686;23.364;2024-02-14T01:23:16;94733.66;;;8.56;78.05
20612;BME280;10465;42.686;23.364;2024-02-14T01:25:42;94707.75;;;8.45;77.65
20612;BME280;10465;42.686;23.364;2024-02-14T01:28:08;94696.72;;;8.42;77.66
20612;BME280;10465;42.686;23.364;2024-02-14T01:30:34;94703.47;;;8.49;77.82
20612;BME280;10465;42.686;23.364;2024-02-14T01:33:02;94718.59;;;8.57;77.59
20612;BME280;10465;42.686;23.364;2024-02-14T01:35:29;94723.75;;;8.62;77.37
20612;BME280;10465;42.686;23.364;2024-02-14T01:37:54;94721.44;;;8.60;77.29
20612;BME280;10465;42.686;23.364;2024-02-14T01:40:20;94719.59;;;8.47;77.86
20612;BME280;10465;42.686;23.364;2024-02-14T01:42:46;94722.91;;;8.53;77.77
20612;BME280;10465;42.686;23.364;2024-02-14T01:45:11;94716.53;;;8.54;77.80
20612;BME280;10465;42.686;23.364;2024-02-14T01:47:37;94714.13;;;8.44;78.16
20612;BME280;10465;42.686;23.364;2024-02-14T01:50:07;94721.53;;;8.55;77.90
20612;BME280;10465;42.686;23.364;2024-02-14T01:52:37;94728.56;;;8.46;77.83
20612;BME280;10465;42.686;23.364;2024-02-14T01:55:04;94731.31;;;8.55;77.90
20612;BME280;10465;42.686;23.364;2024-02-14T01:57:31;94733.34;;;8.58;77.45
20612;BME280;10465;42.686;23.364;2024-02-14T01:59:58;94710.59;;;8.48;77.24
20612;BME280;10465;42.686;23.364;2024-02-14T02:02:26;94727.19;;;8.62;77.14
20612;BME280;10465;42.686;23.364;2024-02-14T02:04:52;94723.88;;;8.57;76.93
20612;BME280;10465;42.686;23.364;2024-02-14T02:07:18;94718.41;;;8.53;76.92
20612;BME280;10465;42.686;23.364;2024-02-14T02:09:45;94716.06;;;8.52;76.65
20612;BME280;10465;42.686;23.364;2024-02-14T02:12:10;94723.47;;;8.63;76.46
20612;BME280;10465;42.686;23.364;2024-02-14T02:14:36;94740.38;;;8.62;76.53
20612;BME280;10465;42.686;23.364;2024-02-14T02:17:01;94737.84;;;8.57;76.06
20612;BME280;10465;42.686;23.364;2024-02-14T02:19:30;94741.19;;;8.63;76.52
20612;BME280;10465;42.686;23.364;2024-02-14T02:21:56;94729.66;;;8.59;76.59
20612;BME280;10465;42.686;23.364;2024-02-14T02:24:21;94731.13;;;8.51;76.21
20612;BME280;10465;42.686;23.364;2024-02-14T02:26:46;94718.69;;;8.38;76.54
20612;BME280;10465;42.686;23.364;2024-02-14T02:29:12;94739.22;;;8.55;76.53
20612;BME280;10465;42.686;23.364;2024-02-14T02:31:37;94744.66;;;8.58;76.48
20612;BME280;10465;42.686;23.364;2024-02-14T02:34:03;94750.44;;;8.60;75.63
20612;BME280;10465;42.686;23.364;2024-02-14T02:36:28;94732.16;;;8.50;75.80
20612;BME280;10465;42.686;23.364;2024-02-14T02:38:56;94741.28;;;8.44;76.23
20612;BME280;10465;42.686;23.364;2024-02-14T02:41:21;94743.81;;;8.49;76.16
20612;BME280;10465;42.686;23.364;2024-02-14T02:43:47;94745.66;;;8.49;76.05
20612;BME280;10465;42.686;23.364;2024-02-14T02:46:15;94748.00;;;8.50;76.32
20612;BME280;10465;42.686;23.364;2024-02-14T02:48:41;94752.41;;;8.55;75.76
20612;BME280;10465;42.686;23.364;2024-02-14T02:51:06;94740.88;;;8.37;75.62
20612;BME280;10465;42.686;23.364;2024-02-14T02:53:32;94757.56;;;8.46;75.72
20612;BME280;10465;42.686;23.364;2024-02-14T02:55:57;94765.50;;;8.46;75.92
20612;BME280;10465;42.686;23.364;2024-02-14T02:58:24;94767.94;;;8.42;76.29
20612;BME280;10465;42.686;23.364;2024-02-14T03:00:50;94762.66;;;8.42;76.19
20612;BME280;10465;42.686;23.364;2024-02-14T03:03:15;94772.88;;;8.30;76.86
20612;BME280;10465;42.686;23.364;2024-02-14T03:05:44;94754.72;;;8.29;76.68
20612;BME280;10465;42.686;23.364;2024-02-14T03:08:10;94760.56;;;8.26;76.68
20612;BME280;10465;42.686;23.364;2024-02-14T03:10:41;94778.31;;;8.39;76.16
20612;BME280;10465;42.686;23.364;2024-02-14T03:13:06;94783.75;;;8.42;76.01
20612;BME280;10465;42.686;23.364;2024-02-14T03:15:37;94758.13;;;8.29;75.84
20612;BME280;10465;42.686;23.364;2024-02-14T03:18:02;94789.63;;;8.39;75.73
20612;BME280;10465;42.686;23.364;2024-02-14T03:20:33;94769.75;;;8.28;75.78
20612;BME280;10465;42.686;23.364;2024-02-14T03:22:58;94774.66;;;8.35;75.99
20612;BME280;10465;42.686;23.364;2024-02-14T03:25:24;94801.56;;;8.51;75.58
20612;BME280;10465;42.686;23.364;2024-02-14T03:27:49;94800.88;;;8.45;75.67
20612;BME280;10465;42.686;23.364;2024-02-14T03:30:18;94787.34;;;8.33;75.33
20612;BME280;10465;42.686;23.364;2024-02-14T03:32:44;94812.78;;;8.42;75.62
20612;BME280;10465;42.686;23.364;2024-02-14T03:35:10;94802.88;;;8.34;75.53
20612;BME280;10465;42.686;23.364;2024-02-14T03:37:37;94791.63;;;8.29;75.50
20612;BME280;10465;42.686;23.364;2024-02-14T03:40:05;94811.78;;;8.38;74.97
20612;BME280;10465;42.686;23.364;2024-02-14T03:42:30;94806.50;;;8.38;74.90
20612;BME280;10465;42.686;23.364;2024-02-14T03:44:55;94815.00;;;8.35;74.97
20612;BME280;10465;42.686;23.364;2024-02-14T03:47:28;94819.13;;;8.41;75.04
20612;BME280;10465;42.686;23.364;2024-02-14T03:49:54;94819.63;;;8.44;74.98
20612;BME280;10465;42.686;23.364;2024-02-14T03:52:20;94814.94;;;8.40;74.84
20612;BME280;10465;42.686;23.364;2024-02-14T03:54:47;94812.50;;;8.44;74.61
20612;BME280;10465;42.686;23.364;2024-02-14T03:57:12;94821.19;;;8.45;74.33
20612;BME280;10465;42.686;23.364;2024-02-14T03:59:38;94815.41;;;8.42;74.13
20612;BME280;10465;42.686;23.364;2024-02-14T04:02:04;94818.66;;;8.39;74.41
20612;BME280;10465;42.686;23.364;2024-02-14T04:04:32;94811.50;;;8.40;74.04
20612;BME280;10465;42.686;23.364;2024-02-14T04:06:58;94827.66;;;8.52;73.88
20612;BME280;10465;42.686;23.364;2024-02-14T04:09:26;94821.28;;;8.39;73.87
20612;BME280;10465;42.686;23.364;2024-02-14T04:11:51;94807.56;;;8.24;73.74
20612;BME280;10465;42.686;23.364;2024-02-14T04:14:17;94831.53;;;8.41;74.19
20612;BME280;10465;42.686;23.364;2024-02-14T04:16:42;94815.75;;;8.22;74.11
20612;BME280;10465;42.686;23.364;2024-02-14T04:19:08;94850.50;;;8.43;73.64
20612;BME280;10465;42.686;23.364;2024-02-14T04:21:36;94829.84;;;8.31;74.11
20612;BME280;10465;42.686;23.364;2024-02-14T04:24:03;94854.97;;;8.42;73.96
20612;BME280;10465;42.686;23.364;2024-02-14T04:26:29;94854.81;;;8.39;74.17
20612;BME280;10465;42.686;23.364;2024-02-14T04:28:54;94843.59;;;8.14;74.49
20612;BME280;10465;42.686;23.364;2024-02-14T04:31:20;94823.94;;;8.07;74.62
20612;BME280;10465;42.686;23.364;2024-02-14T04:33:45;94850.03;;;8.22;74.55
20612;BME280;10465;42.686;23.364;2024-02-14T04:36:20;94818.34;;;8.08;74.65
20612;BME280;10465;42.686;23.364;2024-02-14T04:38:46;94853.53;;;8.17;74.92
20612;BME280;10465;42.686;23.364;2024-02-14T04:41:13;94858.81;;;8.17;74.97
20612;BME280;10465;42.686;23.364;2024-02-14T04:43:39;94864.59;;;8.20;74.97
20612;BME280;10465;42.686;23.364;2024-02-14T04:46:05;94859.31;;;8.20;75.19
20612;BME280;10465;42.686;23.364;2024-02-14T04:48:35;94855.78;;;8.10;75.17
20612;BME280;10465;42.686;23.364;2024-02-14T04:51:02;94869.94;;;8.14;75.50
20612;BME280;10465;42.686;23.364;2024-02-14T04:53:28;94866.91;;;8.07;75.69
20612;BME280;10465;42.686;23.364;2024-02-14T04:55:53;94873.44;;;8.10;75.95
20612;BME280;10465;42.686;23.364;2024-02-14T04:58:19;94873.25;;;8.06;75.65
20612;BME280;10465;42.686;23.364;2024-02-14T05:00:45;94880.84;;;8.08;75.62
20612;BME280;10465;42.686;23.364;2024-02-14T05:03:11;94881.84;;;8.12;75.60
20612;BME280;10465;42.686;23.364;2024-02-14T05:05:36;94844.84;;;7.84;75.90
20612;BME280;10465;42.686;23.364;2024-02-14T05:08:02;94877.88;;;7.96;76.29
20612;BME280;10465;42.686;23.364;2024-02-14T05:10:31;94891.09;;;8.09;75.90
20612;BME280;10465;42.686;23.364;2024-02-14T05:12:57;94881.81;;;7.98;76.22
20612;BME280;10465;42.686;23.364;2024-02-14T05:15:22;94850.75;;;7.76;76.28
20612;BME280;10465;42.686;23.364;2024-02-14T05:17:48;94904.59;;;8.08;76.45
20612;BME280;10465;42.686;23.364;2024-02-14T05:20:14;94915.69;;;8.05;76.17
20612;BME280;10465;42.686;23.364;2024-02-14T05:22:39;94902.03;;;8.03;76.63
20612;BME280;10465;42.686;23.364;2024-02-14T05:25:05;94915.44;;;8.06;76.56
20612;BME280;10465;42.686;23.364;2024-02-14T05:27:34;94927.09;;;8.00;76.49
20612;BME280;10465;42.686;23.364;2024-02-14T05:29:59;94893.13;;;7.80;76.22
20612;BME280;10465;42.686;23.364;2024-02-14T05:32:24;94931.59;;;8.00;76.14
20612;BME280;10465;42.686;23.364;2024-02-14T05:34:53;94896.63;;;7.75;76.45
20612;BME280;10465;42.686;23.364;2024-02-14T05:37:19;94928.75;;;7.96;76.25
20612;BME280;10465;42.686;23.364;2024-02-14T05:39:44;94935.09;;;7.95;76.68
20612;BME280;10465;42.686;23.364;2024-02-14T05:42:10;94924.63;;;7.90;76.45
20612;BME280;10465;42.686;23.364;2024-02-14T05:44:35;94946.56;;;8.04;76.51
20612;BME280;10465;42.686;23.364;2024-02-14T05:47:01;94953.91;;;8.07;76.02
20612;BME280;10465;42.686;23.364;2024-02-14T05:49:26;94906.19;;;7.90;75.53
20612;BME280;10465;42.686;23.364;2024-02-14T05:51:52;94950.59;;;8.15;75.76
20612;BME280;10465;42.686;23.364;2024-02-14T05:54:18;94957.44;;;8.16;74.93
20612;BME280;10465;42.686;23.364;2024-02-14T05:56:45;94958.88;;;8.09;74.78
20612;BME280;10465;42.686;23.364;2024-02-14T05:59:11;94971.56;;;8.07;75.25
20612;BME280;10465;42.686;23.364;2024-02-14T06:01:36;94977.63;;;8.07;77.85
20612;BME280;10465;42.686;23.364;2024-02-14T06:04:01;94977.06;;;8.10;77.33
20612;BME280;10465;42.686;23.364;2024-02-14T06:06:27;94955.66;;;8.12;75.92
20612;BME280;10465;42.686;23.364;2024-02-14T06:08:52;94978.97;;;8.24;74.65
20612;BME280;10465;42.686;23.364;2024-02-14T06:11:18;94964.00;;;8.00;73.94
20612;BME280;10465;42.686;23.364;2024-02-14T06:13:49;94987.59;;;8.10;73.20
20612;BME280;10465;42.686;23.364;2024-02-14T06:16:15;94984.97;;;8.10;73.72
20612;BME280;10465;42.686;23.364;2024-02-14T06:18:40;94997.84;;;8.12;73.15
20612;BME280;10465;42.686;23.364;2024-02-14T06:21:06;94995.00;;;8.08;73.50
20612;BME280;10465;42.686;23.364;2024-02-14T06:23:32;94977.19;;;8.00;73.48
20612;BME280;10465;42.686;23.364;2024-02-14T06:25:58;95002.63;;;8.10;73.40
20612;BME280;10465;42.686;23.364;2024-02-14T06:28:23;95003.00;;;8.03;73.73
20612;BME280;10465;42.686;23.364;2024-02-14T06:30:48;95009.34;;;8.02;73.50
20612;BME280;10465;42.686;23.364;2024-02-14T06:33:14;95003.34;;;7.97;72.93
20612;BME280;10465;42.686;23.364;2024-02-14T06:35:39;95013.25;;;8.05;72.78
20612;BME280;10465;42.686;23.364;2024-02-14T06:38:05;95020.06;;;8.06;72.40
20612;BME280;10465;42.686;23.364;2024-02-14T06:40:31;95012.25;;;8.01;72.48
20612;BME280;10465;42.686;23.364;2024-02-14T06:42:57;94991.34;;;7.85;72.58
20612;BME280;10465;42.686;23.364;2024-02-14T06:45:25;95021.16;;;8.05;72.21
20612;BME280;10465;42.686;23.364;2024-02-14T06:47:50;95015.50;;;7.92;71.97
20612;BME280;10465;42.686;23.364;2024-02-14T06:50:16;95003.31;;;7.78;72.36
20612;BME280;10465;42.686;23.364;2024-02-14T06:52:41;95022.16;;;7.90;72.40
20612;BME280;10465;42.686;23.364;2024-02-14T06:55:07;95016.66;;;7.86;71.89
20612;BME280;10465;42.686;23.364;2024-02-14T06:57:32;95025.19;;;7.97;72.00
20612;BME280;10465;42.686;23.364;2024-02-14T06:59:58;95035.69;;;8.02;71.69
20612;BME280;10465;42.686;23.364;2024-02-14T07:02:23;95020.06;;;7.87;71.67
20612;BME280;10465;42.686;23.364;2024-02-14T07:04:53;95043.88;;;8.01;71.28
20612;BME280;10465;42.686;23.364;2024-02-14T07:07:18;95045.66;;;7.86;71.13
20612;BME280;10465;42.686;23.364;2024-02-14T07:09:44;95041.66;;;7.89;71.16
20612;BME280;10465;42.686;23.364;2024-02-14T07:12:09;95037.44;;;7.88;71.06
20612;BME280;10465;42.686;23.364;2024-02-14T07:14:34;95046.44;;;7.87;71.16
20612;BME280;10465;42.686;23.364;2024-02-14T07:17:00;95048.06;;;7.83;70.49
20612;BME280;10465;42.686;23.364;2024-02-14T07:19:25;95048.78;;;7.88;70.11
20612;BME280;10465;42.686;23.364;2024-02-14T07:21:50;95053.25;;;7.88;70.27
20612;BME280;10465;42.686;23.364;2024-02-14T07:24:16;95060.94;;;7.84;70.64
20612;BME280;10465;42.686;23.364;2024-02-14T07:26:41;95061.78;;;7.80;71.19
20612;BME280;10465;42.686;23.364;2024-02-14T07:29:08;95064.72;;;7.78;71.31
20612;BME280;10465;42.686;23.364;2024-02-14T07:31:34;95059.50;;;7.73;70.62
20612;BME280;10465;42.686;23.364;2024-02-14T07:34:02;95071.34;;;7.76;70.47
20612;BME280;10465;42.686;23.364;2024-02-14T07:36:31;95069.41;;;7.81;70.40
20612;BME280;10465;42.686;23.364;2024-02-14T07:38:57;95074.41;;;7.83;70.05
20612;BME280;10465;42.686;23.364;2024-02-14T07:41:22;95054.84;;;7.65;70.13
20612;BME280;10465;42.686;23.364;2024-02-14T07:43:48;95070.63;;;7.89;69.96
20612;BME280;10465;42.686;23.364;2024-02-14T07:46:20;95049.47;;;7.75;70.00
20612;BME280;10465;42.686;23.364;2024-02-14T07:48:47;95011.69;;;7.37;70.20
20612;BME280;10465;42.686;23.364;2024-02-14T07:51:14;95075.31;;;7.73;70.86
20612;BME280;10465;42.686;23.364;2024-02-14T07:53:39;95064.03;;;7.67;71.36
20612;BME280;10465;42.686;23.364;2024-02-14T07:56:05;95061.34;;;7.49;70.94
20612;BME280;10465;42.686;23.364;2024-02-14T07:58:30;95079.94;;;7.57;70.92
20612;BME280;10465;42.686;23.364;2024-02-14T08:00:56;94983.22;;;6.91;71.24
20612;BME280;10465;42.686;23.364;2024-02-14T08:03:21;95071.56;;;7.55;70.99
20612;BME280;10465;42.686;23.364;2024-02-14T08:05:46;95083.81;;;7.65;71.84
20612;BME280;10465;42.686;23.364;2024-02-14T08:08:12;95089.38;;;7.63;71.39
20612;BME280;10465;42.686;23.364;2024-02-14T08:10:37;95093.13;;;7.57;71.11
20612;BME280;10465;42.686;23.364;2024-02-14T08:13:04;95089.31;;;7.44;71.00
20612;BME280;10465;42.686;23.364;2024-02-14T08:15:29;95090.50;;;7.57;70.82
20612;BME280;10465;42.686;23.364;2024-02-14T08:17:55;95075.28;;;7.49;71.14
20612;BME280;10465;42.686;23.364;2024-02-14T08:20:22;95080.69;;;7.39;70.83
20612;BME280;10465;42.686;23.364;2024-02-14T08:22:48;95096.38;;;7.49;70.77
20612;BME280;10465;42.686;23.364;2024-02-14T08:25:14;95089.66;;;7.38;70.71
20612;BME280;10465;42.686;23.364;2024-02-14T08:27:39;95085.00;;;7.30;71.34
20612;BME280;10465;42.686;23.364;2024-02-14T08:30:05;95091.50;;;7.37;71.30
20612;BME280;10465;42.686;23.364;2024-02-14T08:32:32;95096.59;;;7.53;70.63
20612;BME280;10465;42.686;23.364;2024-02-14T08:34:58;95091.16;;;7.44;70.24
20612;BME280;10465;42.686;23.364;2024-02-14T08:37:23;95110.16;;;7.65;70.40
20612;BME280;10465;42.686;23.364;2024-02-14T08:39:50;95107.31;;;7.61;70.18
20612;BME280;10465;42.686;23.364;2024-02-14T08:42:15;95120.59;;;7.51;69.91
20612;BME280;10465;42.686;23.364;2024-02-14T08:44:41;95101.09;;;7.52;69.84
20612;BME280;10465;42.686;23.364;2024-02-14T08:47:06;95115.38;;;7.46;69.71
20612;BME280;10465;42.686;23.364;2024-02-14T08:49:32;95125.03;;;7.56;70.66
20612;BME280;10465;42.686;23.364;2024-02-14T08:51:58;95133.47;;;7.53;70.12
20612;BME280;10465;42.686;23.364;2024-02-14T08:54:24;95116.63;;;7.54;69.53
20612;BME280;10465;42.686;23.364;2024-02-14T08:56:50;95128.97;;;7.58;68.99
20612;BME280;10465;42.686;23.364;2024-02-14T08:59:18;95117.69;;;7.53;69.01
20612;BME280;10465;42.686;23.364;2024-02-14T09:01:45;95139.28;;;7.55;68.76
20612;BME280;10465;42.686;23.364;2024-02-14T09:04:10;95125.88;;;7.51;68.88
20612;BME280;10465;42.686;23.364;2024-02-14T09:06:36;95119.66;;;7.37;69.42
20612;BME280;10465;42.686;23.364;2024-02-14T09:09:02;95127.97;;;7.49;69.20
20612;BME280;10465;42.686;23.364;2024-02-14T09:11:28;95142.56;;;7.65;68.98
20612;BME280;10465;42.686;23.364;2024-02-14T09:13:53;95131.41;;;7.74;68.79
20612;BME280;10465;42.686;23.364;2024-02-14T09:16:21;95142.19;;;7.77;68.96
20612;BME280;10465;42.686;23.364;2024-02-14T09:18:47;95144.88;;;7.72;68.48
20612;BME280;10465;42.686;23.364;2024-02-14T09:21:12;95145.72;;;7.67;68.47
20612;BME280;10465;42.686;23.364;2024-02-14T09:23:40;95151.09;;;7.57;68.99
20612;BME280;10465;42.686;23.364;2024-02-14T09:26:06;95155.25;;;7.63;68.81
20612;BME280;10465;42.686;23.364;2024-02-14T09:28:32;95128.81;;;7.44;69.13
20612;BME280;10465;42.686;23.364;2024-02-14T09:30:58;95115.53;;;7.31;69.54
20612;BME280;10465;42.686;23.364;2024-02-14T09:33:24;95156.25;;;7.67;69.14
20612;BME280;10465;42.686;23.364;2024-02-14T09:35:49;95129.66;;;7.40;68.94
20612;BME280;10465;42.686;23.364;2024-02-14T09:38:17;95151.66;;;7.54;69.30
20612;BME280;10465;42.686;23.364;2024-02-14T09:40:42;95163.25;;;7.53;68.52
20612;BME280;10465;42.686;23.364;2024-02-14T09:43:25;95161.69;;;7.52;69.06
20612;BME280;10465;42.686;23.364;2024-02-14T09:45:53;95121.16;;;7.19;69.03
20612;BME280;10465;42.686;23.364;2024-02-14T09:48:19;95141.66;;;7.22;69.29
20612;BME280;10465;42.686;23.364;2024-02-14T09:50:48;95159.75;;;7.34;70.28
20612;BME280;10465;42.686;23.364;2024-02-14T09:53:14;95135.94;;;7.15;70.13
20612;BME280;10465;42.686;23.364;2024-02-14T09:55:40;95154.28;;;7.25;70.69
20612;BME280;10465;42.686;23.364;2024-02-14T09:58:06;95118.75;;;7.23;70.06
20612;BME280;10465;42.686;23.364;2024-02-14T10:00:32;95140.13;;;7.45;70.45
20612;BME280;10465;42.686;23.364;2024-02-14T10:02:58;95153.53;;;7.49;69.71
20612;BME280;10465;42.686;23.364;2024-02-14T10:05:23;95113.13;;;7.34;69.03
20612;BME280;10465;42.686;23.364;2024-02-14T10:07:49;95148.78;;;7.51;69.06
20612;BME280;10465;42.686;23.364;2024-02-14T10:10:14;95148.31;;;7.43;68.59
20612;BME280;10465;42.686;23.364;2024-02-14T10:12:40;95149.47;;;7.61;68.12
20612;BME280;10465;42.686;23.364;2024-02-14T10:15:07;95151.38;;;7.56;68.61
20612;BME280;10465;42.686;23.364;2024-02-14T10:17:33;95150.53;;;7.60;68.55
20612;BME280;10465;42.686;23.364;2024-02-14T10:20:00;95127.81;;;7.40;68.56
20612;BME280;10465;42.686;23.364;2024-02-14T10:22:37;95148.59;;;7.71;68.00
20612;BME280;10465;42.686;23.364;2024-02-14T10:25:04;95134.56;;;7.52;67.35
20612;BME280;10465;42.686;23.364;2024-02-14T10:27:35;95137.19;;;7.52;67.58
20612;BME280;10465;42.686;23.364;2024-02-14T10:30:04;95154.56;;;7.53;67.09
20612;BME280;10465;42.686;23.364;2024-02-14T10:32:30;95149.56;;;7.51;66.80
20612;BME280;10465;42.686;23.364;2024-02-14T10:34:55;95129.09;;;7.43;66.72
20612;BME280;10465;42.686;23.364;2024-02-14T10:37:22;95140.13;;;7.45;66.92
20612;BME280;10465;42.686;23.364;2024-02-14T10:39:50;95115.94;;;7.43;66.42
20612;BME280;10465;42.686;23.364;2024-02-14T10:42:18;95129.56;;;7.50;66.68
20612;BME280;10465;42.686;23.364;2024-02-14T10:44:44;95130.91;;;7.48;67.66
20612;BME280;10465;42.686;23.364;2024-02-14T10:47:14;95123.97;;;7.57;66.30
20612;BME280;10465;42.686;23.364;2024-02-14T10:49:45;95155.47;;;7.67;65.54
20612;BME280;10465;42.686;23.364;2024-02-14T10:52:11;95137.75;;;7.73;65.64
20612;BME280;10465;42.686;23.364;2024-02-14T10:54:37;95117.81;;;7.66;65.52
20612;BME280;10465;42.686;23.364;2024-02-14T10:57:06;95120.72;;;7.65;65.22
20612;BME280;10465;42.686;23.364;2024-02-14T10:59:39;95154.75;;;7.85;64.86
20612;BME280;10465;42.686;23.364;2024-02-14T11:02:07;95147.38;;;7.87;65.26
20612;BME280;10465;42.686;23.364;2024-02-14T11:04:33;95151.31;;;7.90;64.87
20612;BME280;10465;42.686;23.364;2024-02-14T11:06:58;95115.59;;;7.74;64.71
20612;BME280;10465;42.686;23.364;2024-02-14T11:09:36;95124.81;;;7.76;65.05
20612;BME280;10465;42.686;23.364;2024-02-14T11:12:02;95155.03;;;7.84;64.59
20612;BME280;10465;42.686;23.364;2024-02-14T11:14:34;95129.63;;;7.69;65.01
20612;BME280;10465;42.686;23.364;2024-02-14T11:17:01;95139.53;;;7.82;64.62
20612;BME280;10465;42.686;23.364;2024-02-14T11:19:31;95151.31;;;7.90;65.03
20612;BME280;10465;42.686;23.364;2024-02-14T11:22:10;95143.41;;;7.90;64.84
20612;BME280;10465;42.686;23.364;2024-02-14T11:24:37;95153.81;;;8.00;63.98
20612;BME280;10465;42.686;23.364;2024-02-14T11:27:02;95124.44;;;7.88;63.81
20612;BME280;10465;42.686;23.364;2024-02-14T11:29:31;95122.41;;;7.80;64.16
20612;BME280;10465;42.686;23.364;2024-02-14T11:32:00;95141.81;;;7.89;64.30
20612;BME280;10465;42.686;23.364;2024-02-14T11:34:27;95115.19;;;7.66;64.58
20612;BME280;10465;42.686;23.364;2024-02-14T11:36:53;95142.19;;;7.77;64.64
20612;BME280;10465;42.686;23.364;2024-02-14T11:39:20;95145.50;;;7.88;65.05
20612;BME280;10465;42.686;23.364;2024-02-14T11:41:45;95148.94;;;7.88;64.86
20612;BME280;10465;42.686;23.364;2024-02-14T11:44:11;95129.47;;;7.84;64.51
20612;BME280;10465;42.686;23.364;2024-02-14T11:46:39;95078.16;;;7.53;64.25
20612;BME280;10465;42.686;23.364;2024-02-14T11:49:05;95149.88;;;7.98;64.26
20612;BME280;10465;42.686;23.364;2024-02-14T11:51:33;95143.28;;;8.00;63.83
20612;BME280;10465;42.686;23.364;2024-02-14T11:53:59;95122.91;;;7.82;63.75
20612;BME280;10465;42.686;23.364;2024-02-14T11:56:31;95125.22;;;7.88;64.11
20612;BME280;10465;42.686;23.364;2024-02-14T11:58:59;95127.53;;;7.95;64.10
20612;BME280;10465;42.686;23.364;2024-02-14T12:01:28;95147.81;;;8.18;63.58
20612;BME280;10465;42.686;23.364;2024-02-14T12:03:54;95142.09;;;8.11;63.14
20612;BME280;10465;42.686;23.364;2024-02-14T12:06:19;95134.19;;;8.11;63.40
20612;BME280;10465;42.686;23.364;2024-02-14T12:08:45;95088.69;;;7.77;63.00
20612;BME280;10465;42.686;23.364;2024-02-14T12:11:10;95109.78;;;8.01;62.95
20612;BME280;10465;42.686;23.364;2024-02-14T12:13:36;95141.97;;;8.22;62.92
20612;BME280;10465;42.686;23.364;2024-02-14T12:16:03;95084.19;;;7.82;62.47
20612;BME280;10465;42.686;23.364;2024-02-14T12:18:31;95132.88;;;8.09;62.67
20612;BME280;10465;42.686;23.364;2024-02-14T12:21:06;95137.19;;;8.24;62.55
20612;BME280;10465;42.686;23.364;2024-02-14T12:23:35;95129.84;;;8.21;62.47
20612;BME280;10465;42.686;23.364;2024-02-14T12:26:04;95136.13;;;8.25;62.27
20612;BME280;10465;42.686;23.364;2024-02-14T12:28:31;95140.06;;;8.27;62.24
20612;BME280;10465;42.686;23.364;2024-02-14T12:30:57;95136.06;;;8.30;61.88
20612;BME280;10465;42.686;23.364;2024-02-14T12:33:27;95130.44;;;8.36;62.10
20612;BME280;10465;42.686;23.364;2024-02-14T12:35:56;95117.72;;;8.20;62.49
20612;BME280;10465;42.686;23.364;2024-02-14T12:38:22;95134.50;;;8.29;61.84
20612;BME280;10465;42.686;23.364;2024-02-14T12:40:49;95128.22;;;8.25;61.54
20612;BME280;10465;42.686;23.364;2024-02-14T12:43:15;95127.28;;;8.34;62.12
20612;BME280;10465;42.686;23.364;2024-02-14T12:45:42;95124.34;;;8.41;61.50
20612;BME280;10465;42.686;23.364;2024-02-14T12:48:08;95113.47;;;8.24;61.29
20612;BME280;10465;42.686;23.364;2024-02-14T12:50:35;95117.53;;;8.35;61.31
20612;BME280;10465;42.686;23.364;2024-02-14T12:53:02;95127.97;;;8.45;61.72
20612;BME280;10465;42.686;23.364;2024-02-14T12:55:27;95117.13;;;8.47;61.46